Scotrun, Pennsylvania
Current Conditions -  °F | °C
As of 6:22 PM on Wednesday 26 Nov 2014 (Local Time) from KMPO Reporting Station
Light Snow Light Snow  
Wind Chill: 21°   Ceiling: 1300
Heat Index: 30°   Visibility: 1mi
Dew Point: 27°   Wind: 12mph
Humidity: 88%   Direction: 330°NNW
Pressure: 29.84"   Gusts: 21mph
Location:  41.07°N, 75.32°W
Report Text: KMPO 262322Z AUTO 33010G18KT 1SM -SN BR VV013 M01/M03 A2984 RMK AO2 P0001 T10111028
Loading
Personal Weather Stations






























Interactive Weather Map New forecast layout! Learn more

10-Day Weather Forecast

Advertisements
Track Severe Weather on mobile